createdAt,value
2023-03-15T00:01:24.313Z,100728.22
2023-03-15T00:03:51.570Z,100728.22
2023-03-15T00:06:18.437Z,100741.59
2023-03-15T00:08:47.933Z,100740.28
2023-03-15T00:11:17.062Z,100745.50
2023-03-15T00:13:44.458Z,100755.28
2023-03-15T00:16:11.787Z,100748.09
2023-03-15T00:18:38.848Z,100752.28
2023-03-15T00:21:05.857Z,100755.91
2023-03-15T00:23:32.893Z,100755.91
2023-03-15T00:25:59.843Z,100748.06
2023-03-15T00:28:26.706Z,100772.50
2023-03-15T00:31:05.396Z,100763.91
2023-03-15T00:33:35.210Z,100768.81
2023-03-15T00:36:07.757Z,100767.09
2023-03-15T00:38:35.964Z,100769.03
2023-03-15T00:41:11.223Z,100770.81
2023-03-15T00:43:38.669Z,100774.31
2023-03-15T00:46:06.320Z,100782.59
2023-03-15T00:48:35.446Z,100792.88
2023-03-15T00:51:06.752Z,100793.50
2023-03-15T00:53:34.458Z,100799.00
2023-03-15T00:56:11.518Z,100799.25
2023-03-15T00:58:39.446Z,100800.81
2023-03-15T01:01:11.940Z,100802.00
2023-03-15T01:03:39.390Z,100802.88
2023-03-15T01:06:27.764Z,100804.25
2023-03-15T01:08:57.235Z,100814.19
2023-03-15T01:11:27.550Z,100814.50
2023-03-15T01:13:56.576Z,100813.38
2023-03-15T01:16:24.301Z,100814.94
2023-03-15T01:18:54.440Z,100821.78
2023-03-15T01:21:22.608Z,100820.56
2023-03-15T01:23:49.823Z,100832.38
2023-03-15T01:26:17.975Z,100826.00
2023-03-15T01:28:45.337Z,100831.03
2023-03-15T01:31:25.464Z,100839.00
2023-03-15T01:33:53.142Z,100835.41
2023-03-15T01:36:20.049Z,100826.78
2023-03-15T01:38:47.232Z,100839.03
2023-03-15T01:41:15.939Z,100837.03
2023-03-15T01:43:47.523Z,100843.22
2023-03-15T01:46:23.679Z,100846.34
2023-03-15T01:49:12.924Z,100845.56
2023-03-15T01:52:13.174Z,100849.94
2023-03-15T01:54:44.131Z,100853.50
2023-03-15T01:57:16.553Z,100849.47
2023-03-15T01:59:52.753Z,100847.22
2023-03-15T02:02:23.028Z,100847.84
2023-03-15T02:04:57.093Z,100855.16
2023-03-15T02:07:27.682Z,100862.13
2023-03-15T02:10:02.774Z,100869.16
2023-03-15T02:12:33.874Z,100863.81
2023-03-15T02:15:03.405Z,100870.75
2023-03-15T02:17:37.392Z,100863.06
2023-03-15T02:20:39.666Z,100861.53
2023-03-15T02:23:13.091Z,100868.44
2023-03-15T02:25:48.469Z,100880.13
2023-03-15T02:28:18.029Z,100876.09
2023-03-15T02:30:46.428Z,100883.56
2023-03-15T02:33:47.029Z,100891.44
2023-03-15T02:36:26.300Z,100894.13
2023-03-15T02:38:54.614Z,100888.78
2023-03-15T02:41:28.034Z,100897.94
2023-03-15T02:44:01.602Z,100891.75
2023-03-15T02:46:29.168Z,100886.13
2023-03-15T02:48:56.783Z,100869.56
2023-03-15T02:51:25.314Z,100890.34
2023-03-15T02:53:52.154Z,100836.56
2023-03-15T02:56:19.346Z,100899.69
2023-03-15T02:58:46.543Z,100912.53
2023-03-15T03:01:14.603Z,100911.63
2023-03-15T03:03:42.950Z,100915.72
2023-03-15T03:06:10.966Z,100919.28
2023-03-15T03:08:37.934Z,100933.00
2023-03-15T03:11:05.407Z,100934.81
2023-03-15T03:13:32.197Z,100956.16
2023-03-15T03:15:59.139Z,100956.41
2023-03-15T03:18:27.464Z,100961.41
2023-03-15T03:20:59.420Z,100964.63
2023-03-15T03:23:26.939Z,100975.06
2023-03-15T03:25:57.126Z,100985.75
2023-03-15T03:28:26.347Z,100993.03
2023-03-15T03:30:54.433Z,100991.44
2023-03-15T03:33:21.977Z,100999.19
2023-03-15T03:35:49.649Z,101003.38
2023-03-15T03:38:17.957Z,101016.13
2023-03-15T03:40:46.403Z,101017.38
2023-03-15T03:43:13.455Z,101025.19
2023-03-15T03:45:40.454Z,101015.38
2023-03-15T03:48:07.347Z,101013.50
2023-03-15T03:50:34.062Z,101006.09
2023-03-15T03:53:01.293Z,101009.25
2023-03-15T03:55:28.167Z,101005.59
2023-03-15T03:57:55.255Z,101003.66
2023-03-15T04:00:22.177Z,101001.19
2023-03-15T04:02:49.072Z,101006.56
2023-03-15T04:05:15.913Z,101015.88
2023-03-15T04:07:42.881Z,101024.44
2023-03-15T04:10:14.932Z,101018.59
2023-03-15T04:12:43.666Z,101032.31
2023-03-15T04:15:12.218Z,101039.59
2023-03-15T04:17:39.659Z,101058.78
2023-03-15T04:20:09.304Z,101059.00
2023-03-15T04:22:36.403Z,101065.72
2023-03-15T04:25:04.018Z,101066.41
2023-03-15T04:27:31.288Z,101070.31
2023-03-15T04:29:58.190Z,101073.66
2023-03-15T04:32:25.207Z,101067.09
2023-03-15T04:34:52.120Z,101067.69
2023-03-15T04:37:19.472Z,101064.06
2023-03-15T04:39:46.702Z,101060.97
2023-03-15T04:42:13.473Z,101077.28
2023-03-15T04:44:40.212Z,101075.69
2023-03-15T04:47:07.230Z,101077.69
2023-03-15T04:49:34.231Z,101082.31
2023-03-15T04:52:01.548Z,101090.41
2023-03-15T04:54:28.604Z,101094.78
2023-03-15T04:56:55.510Z,101103.81
2023-03-15T04:59:22.399Z,101100.50
2023-03-15T05:01:49.387Z,101113.41
2023-03-15T05:04:16.734Z,101106.97
2023-03-15T05:06:43.622Z,101120.66
2023-03-15T05:09:18.094Z,101120.91
2023-03-15T05:11:46.807Z,101121.59
2023-03-15T05:14:14.321Z,101111.63
2023-03-15T05:16:41.565Z,101128.63
2023-03-15T05:19:08.700Z,101135.81
2023-03-15T05:21:36.665Z,101142.84
2023-03-15T05:24:04.573Z,101142.50
2023-03-15T05:26:36.288Z,101147.84
2023-03-15T05:29:04.152Z,101144.09
2023-03-15T05:31:37.150Z,101155.44
2023-03-15T05:34:04.914Z,101148.31
2023-03-15T05:36:32.723Z,101165.69
2023-03-15T05:38:59.740Z,101167.09
2023-03-15T05:41:26.808Z,101170.47
2023-03-15T05:43:53.665Z,101173.06
2023-03-15T05:46:23.022Z,101175.31
2023-03-15T05:48:50.203Z,101178.81
2023-03-15T05:51:17.379Z,101160.66
2023-03-15T05:53:45.998Z,101177.03
2023-03-15T05:56:13.415Z,101191.41
2023-03-15T05:58:40.604Z,101198.88
2023-03-15T06:01:07.595Z,101195.78
2023-03-15T06:03:34.445Z,101201.00
2023-03-15T06:06:01.381Z,101202.31
2023-03-15T06:08:28.421Z,101197.22
2023-03-15T06:10:55.493Z,101199.84
2023-03-15T06:13:22.434Z,101202.16
2023-03-15T06:15:49.309Z,101201.06
2023-03-15T06:18:17.677Z,101178.84
2023-03-15T06:20:44.888Z,101186.16
2023-03-15T06:23:11.840Z,101213.94
2023-03-15T06:25:38.551Z,101215.72
2023-03-15T06:28:05.651Z,101209.97
2023-03-15T06:30:35.018Z,101210.53
2023-03-15T06:33:02.069Z,101217.81
2023-03-15T06:35:29.254Z,101221.69
2023-03-15T06:37:56.324Z,101227.28
2023-03-15T06:40:26.324Z,101219.25
2023-03-15T06:42:54.922Z,101238.91
2023-03-15T06:45:22.061Z,101234.75
2023-03-15T06:47:49.221Z,101245.25
2023-03-15T06:50:16.450Z,101231.06
2023-03-15T06:52:43.329Z,101276.69
2023-03-15T06:55:12.756Z,101236.75
2023-03-15T06:57:39.589Z,101312.22
2023-03-15T07:00:11.479Z,101327.09
2023-03-15T07:02:38.943Z,101321.50
2023-03-15T07:05:06.386Z,101318.25
2023-03-15T07:07:33.101Z,101307.28
2023-03-15T07:10:00.216Z,101307.44
2023-03-15T07:12:27.373Z,101319.50
2023-03-15T07:14:54.146Z,101308.69
2023-03-15T07:17:21.028Z,101296.78
2023-03-15T07:19:56.169Z,101291.28
2023-03-15T07:22:24.282Z,101292.97
2023-03-15T07:24:51.561Z,101310.13
2023-03-15T07:27:19.529Z,101306.47
2023-03-15T07:29:46.922Z,101306.66
2023-03-15T07:32:13.865Z,101307.81
2023-03-15T07:34:40.676Z,101307.19
2023-03-15T07:37:07.574Z,101313.41
2023-03-15T07:39:34.450Z,101312.94
2023-03-15T07:42:01.583Z,101321.09
2023-03-15T07:44:28.589Z,101318.38
2023-03-15T07:46:56.123Z,101323.28
2023-03-15T07:49:23.325Z,101329.44
2023-03-15T07:51:50.397Z,101325.34
2023-03-15T07:54:17.531Z,101316.16
2023-03-15T07:56:44.685Z,101313.75
2023-03-15T07:59:16.064Z,101318.97
2023-03-15T08:01:43.106Z,101320.75
2023-03-15T08:04:10.038Z,101321.66
2023-03-15T08:06:36.957Z,101319.72
2023-03-15T08:09:06.000Z,101321.44
2023-03-15T08:14:06.276Z,101335.75
2023-03-15T08:16:33.215Z,101336.00
2023-03-15T08:19:00.210Z,101335.06
2023-03-15T08:21:27.388Z,101338.22
2023-03-15T08:23:54.348Z,101352.44
2023-03-15T08:26:21.202Z,101350.22
2023-03-15T08:28:48.228Z,101347.25
2023-03-15T08:31:15.197Z,101360.41
2023-03-15T08:33:42.428Z,101363.19
2023-03-15T08:36:09.791Z,101348.59
2023-03-15T08:38:37.146Z,101369.50
2023-03-15T08:41:04.014Z,101385.16
2023-03-15T08:43:30.963Z,101390.66
2023-03-15T08:46:01.643Z,101418.44
2023-03-15T08:48:29.648Z,101443.13
2023-03-15T08:50:57.737Z,101446.94
2023-03-15T08:53:24.547Z,101424.06
2023-03-15T08:55:54.354Z,101426.00
2023-03-15T08:58:21.303Z,101427.59
2023-03-15T09:00:50.113Z,101433.31
2023-03-15T09:03:17.657Z,101442.44
2023-03-15T09:05:44.755Z,101433.03
2023-03-15T09:08:11.566Z,101443.59
2023-03-15T09:10:38.438Z,101438.44
2023-03-15T09:13:05.475Z,101432.72
2023-03-15T09:15:32.247Z,101419.34
2023-03-15T09:17:59.046Z,101408.75
2023-03-15T09:20:28.390Z,101398.84
2023-03-15T09:22:57.606Z,101394.22
2023-03-15T09:25:25.857Z,101382.78
2023-03-15T09:27:53.471Z,101408.56
2023-03-15T09:30:20.614Z,101413.19
2023-03-15T09:32:48.405Z,101425.00
2023-03-15T09:35:18.369Z,101450.28
2023-03-15T09:37:45.713Z,101468.59
2023-03-15T09:40:33.849Z,101479.06
2023-03-15T09:43:06.708Z,101485.72
2023-03-15T09:45:59.071Z,101482.31
2023-03-15T10:37:17.493Z,101433.53
2023-03-15T10:39:49.936Z,101439.59
2023-03-15T10:42:32.269Z,101430.91
2023-03-15T10:45:11.908Z,101445.81
2023-03-15T10:47:50.463Z,101444.25
2023-03-15T10:50:31.143Z,101452.47
2023-03-15T10:53:00.542Z,101472.75
2023-03-15T10:55:38.282Z,101460.59
2023-03-15T10:58:28.568Z,101464.09
2023-03-15T11:01:11.471Z,101456.34
2023-03-15T11:03:39.221Z,101464.41
2023-03-15T11:06:21.225Z,101470.28
2023-03-15T11:08:49.195Z,101481.38
2023-03-15T11:11:16.386Z,101472.81
2023-03-15T11:14:03.063Z,101500.59
2023-03-15T11:16:35.139Z,101508.94
2023-03-15T11:19:04.351Z,101500.97
2023-03-15T11:21:33.810Z,101492.91
2023-03-15T11:24:06.538Z,101530.03
2023-03-15T11:26:36.871Z,101559.94
2023-03-15T11:29:16.348Z,101552.31
2023-03-15T11:31:43.624Z,101575.28
2023-03-15T11:34:22.505Z,101577.81
2023-03-15T11:37:07.286Z,101558.09
2023-03-15T11:39:45.678Z,101555.19
2023-03-15T11:42:25.874Z,101569.28
2023-03-15T11:44:59.106Z,101551.31
2023-03-15T11:47:40.639Z,101568.41
2023-03-15T11:50:11.194Z,101567.50
2023-03-15T11:52:38.069Z,101536.53
2023-03-15T11:55:05.428Z,101530.69
2023-03-15T11:57:36.872Z,101521.09
2023-03-15T12:00:27.320Z,101529.19
2023-03-15T12:03:00.182Z,101566.09
2023-03-15T12:05:49.022Z,101571.59
2023-03-15T12:08:25.386Z,101552.63
2023-03-15T12:10:52.868Z,101557.88
2023-03-15T12:13:24.302Z,101566.28
2023-03-15T12:15:52.227Z,101566.75
2023-03-15T12:18:22.931Z,101574.00
2023-03-15T12:20:57.452Z,101577.28
2023-03-15T12:23:58.664Z,101587.81
2023-03-15T12:26:27.545Z,101585.34
2023-03-15T12:29:00.905Z,101559.94
2023-03-15T12:31:44.728Z,101560.00
2023-03-15T12:34:44.672Z,101556.13
2023-03-15T12:37:28.702Z,101556.09
2023-03-15T12:40:19.734Z,101555.16
2023-03-15T12:42:46.880Z,101564.13
2023-03-15T12:45:16.694Z,101563.78
2023-03-15T12:47:53.106Z,101565.88
2023-03-15T12:50:48.185Z,101569.81
2023-03-15T12:53:18.593Z,101572.47
2023-03-15T12:55:45.598Z,101559.69
2023-03-15T12:58:13.885Z,101573.44
2023-03-15T13:00:43.508Z,101580.31
2023-03-15T13:03:19.645Z,101582.31
2023-03-15T13:06:14.666Z,101589.94
2023-03-15T13:09:09.500Z,101585.16
2023-03-15T13:12:01.279Z,101575.75
2023-03-15T13:14:50.262Z,101585.00
2023-03-15T13:17:35.532Z,101589.16
2023-03-15T13:20:40.146Z,101575.88
2023-03-15T13:23:21.289Z,101587.56
2023-03-15T13:26:12.853Z,101590.72
2023-03-15T13:28:47.070Z,101590.06
2023-03-15T13:31:22.017Z,101582.91
2023-03-15T13:33:57.611Z,101591.00
2023-03-15T13:36:46.126Z,101584.09
2023-03-15T13:39:24.254Z,101594.88
2023-03-15T13:42:02.574Z,101590.13
2023-03-15T13:44:31.244Z,101572.19
2023-03-15T13:46:59.616Z,101602.94
2023-03-15T13:49:32.656Z,101605.34
2023-03-15T13:52:02.996Z,101619.66
2023-03-15T13:54:34.909Z,101619.28
2023-03-15T13:57:07.930Z,101620.72
2023-03-15T13:59:45.282Z,101631.84
2023-03-15T14:02:28.925Z,101633.25
2023-03-15T14:05:11.333Z,101625.50
2023-03-15T14:07:45.976Z,101630.16
2023-03-15T14:10:18.843Z,101625.69
2023-03-15T14:12:46.623Z,101625.69
2023-03-15T14:15:36.354Z,101624.00
2023-03-15T14:18:25.122Z,101627.06
2023-03-15T14:21:05.107Z,101626.28
2023-03-15T14:23:32.317Z,101625.16
2023-03-15T14:26:08.013Z,101628.19
2023-03-15T14:28:35.562Z,101625.38
2023-03-15T14:31:06.504Z,101636.78
2023-03-15T14:33:40.992Z,101631.50
2023-03-15T14:36:22.836Z,101583.31
2023-03-15T14:38:54.795Z,101630.88
2023-03-15T14:41:32.669Z,101625.22
2023-03-15T14:44:01.526Z,101634.13
2023-03-15T14:46:28.819Z,101640.84
2023-03-15T14:48:59.069Z,101619.84
2023-03-15T14:51:28.813Z,101650.84
2023-03-15T14:53:57.616Z,101647.69
2023-03-15T14:56:25.606Z,101659.31
2023-03-15T14:58:55.954Z,101654.06
2023-03-15T15:01:27.318Z,101659.03
2023-03-15T15:04:03.136Z,101640.03
2023-03-15T15:06:33.749Z,101654.13
2023-03-15T15:09:02.052Z,101653.72
2023-03-15T15:11:28.985Z,101657.25
2023-03-15T15:13:56.843Z,101656.00
2023-03-15T15:16:24.260Z,101672.97
2023-03-15T15:18:54.109Z,101665.81
2023-03-15T15:21:27.538Z,101667.78
2023-03-15T15:23:58.915Z,101671.81
2023-03-15T15:26:28.762Z,101674.06
2023-03-15T15:28:56.776Z,101682.69
2023-03-15T15:31:25.910Z,101684.09
2023-03-15T15:33:55.852Z,101678.91
2023-03-15T15:36:26.957Z,101676.72
2023-03-15T15:38:54.032Z,101689.16
2023-03-15T15:41:31.686Z,101689.72
2023-03-15T15:43:59.775Z,101695.56
2023-03-15T15:46:26.659Z,101692.22
2023-03-15T15:48:55.696Z,101673.13
2023-03-15T15:51:52.628Z,101696.66
2023-03-15T15:54:26.228Z,101702.19
2023-03-15T15:56:57.823Z,101701.91
2023-03-15T15:59:26.020Z,101698.53
2023-03-15T16:02:01.211Z,101698.03
2023-03-15T16:04:29.889Z,101688.88
2023-03-15T16:07:01.837Z,101709.94
2023-03-15T16:09:31.002Z,101712.69
2023-03-15T16:11:58.573Z,101718.53
2023-03-15T16:14:25.570Z,101716.31
2023-03-15T16:16:52.493Z,101715.22
2023-03-15T16:19:19.488Z,101699.88
2023-03-15T16:21:49.564Z,101735.56
2023-03-15T16:24:24.429Z,101739.94
2023-03-15T16:26:59.143Z,101741.81
2023-03-15T16:29:35.897Z,101737.56
2023-03-15T16:32:16.549Z,101741.66
2023-03-15T16:34:48.476Z,101751.03
2023-03-15T16:37:20.025Z,101752.53
2023-03-15T16:39:50.157Z,101763.59
2023-03-15T16:42:18.321Z,101760.72
2023-03-15T16:44:45.193Z,101759.97
2023-03-15T16:47:14.847Z,101769.00
2023-03-15T16:49:41.984Z,101770.25
2023-03-15T16:52:13.703Z,101765.28
2023-03-15T16:54:43.048Z,101784.41
2023-03-15T16:57:23.524Z,101778.47
2023-03-15T16:59:50.961Z,101783.66
2023-03-15T17:02:20.782Z,101791.75
2023-03-15T17:04:47.923Z,101793.09
2023-03-15T17:07:15.953Z,101781.31
2023-03-15T17:09:46.421Z,101785.06
2023-03-15T17:12:26.028Z,101798.84
2023-03-15T17:14:56.730Z,101806.81
2023-03-15T17:17:25.770Z,101805.25
2023-03-15T17:19:53.044Z,101811.34
2023-03-15T17:22:20.724Z,101810.72
2023-03-15T17:24:49.139Z,101815.63
2023-03-15T17:27:32.086Z,101816.75
2023-03-15T17:29:59.079Z,101813.47
2023-03-15T17:32:26.255Z,101821.69
2023-03-15T17:34:59.237Z,101830.69
2023-03-15T17:37:30.877Z,101830.28
2023-03-15T17:39:58.314Z,101824.25
2023-03-15T17:42:25.411Z,101829.19
2023-03-15T17:44:52.402Z,101826.56
2023-03-15T17:47:19.423Z,101837.84
2023-03-15T17:49:48.352Z,101839.69
2023-03-15T17:52:17.515Z,101843.16
2023-03-15T17:54:47.466Z,101849.31
2023-03-15T17:57:14.542Z,101855.78
2023-03-15T17:59:41.443Z,101844.56
2023-03-15T18:02:16.037Z,101843.97
2023-03-15T18:04:45.136Z,101847.47
2023-03-15T18:07:14.823Z,101854.88
2023-03-15T18:09:41.683Z,101851.75
2023-03-15T18:12:12.810Z,101855.63
2023-03-15T18:14:40.819Z,101864.78
2023-03-15T18:17:07.744Z,101860.50
2023-03-15T18:19:34.740Z,101863.38
2023-03-15T18:22:02.012Z,101861.47
2023-03-15T18:24:29.117Z,101864.34
2023-03-15T18:26:55.959Z,101850.50
2023-03-15T18:29:22.934Z,101866.28
2023-03-15T18:31:52.712Z,101876.06
2023-03-15T18:36:49.680Z,101867.34
2023-03-15T18:39:16.788Z,101880.50
2023-03-15T18:41:43.767Z,101881.09
2023-03-15T18:44:11.370Z,101883.56
2023-03-15T18:46:38.466Z,101885.63
2023-03-15T18:49:05.898Z,101883.56
2023-03-15T18:51:32.765Z,101893.38
2023-03-15T18:53:59.693Z,101888.63
2023-03-15T18:56:34.556Z,101900.06
2023-03-15T18:59:02.333Z,101899.56
2023-03-15T19:01:29.401Z,101885.59
2023-03-15T19:03:59.035Z,101907.91
2023-03-15T19:06:29.027Z,101896.47
2023-03-15T19:08:57.543Z,101896.22
2023-03-15T19:11:25.375Z,101906.38
2023-03-15T19:13:52.942Z,101901.00
2023-03-15T19:16:23.494Z,101895.59
2023-03-15T19:18:52.542Z,101904.09
2023-03-15T19:21:20.381Z,101903.44
2023-03-15T19:23:48.299Z,101900.41
2023-03-15T19:26:16.591Z,101908.50
2023-03-15T19:28:46.551Z,101904.09
2023-03-15T19:31:13.503Z,101910.72
2023-03-15T19:33:40.664Z,101906.81
2023-03-15T19:36:08.699Z,101906.34
2023-03-15T19:38:35.796Z,101911.19
2023-03-15T19:41:05.039Z,101910.91
2023-03-15T19:43:32.862Z,101903.09
2023-03-15T19:46:01.856Z,101918.63
2023-03-15T19:48:29.154Z,101913.38
2023-03-15T19:50:56.415Z,101917.22
2023-03-15T19:53:23.340Z,101921.63
2023-03-15T19:55:50.260Z,101925.53
2023-03-15T19:58:17.433Z,101858.63
2023-03-15T20:00:45.554Z,101931.56
2023-03-15T20:03:13.043Z,101940.00
2023-03-15T20:05:40.577Z,101941.22
2023-03-15T20:08:09.071Z,101945.13
2023-03-15T20:10:36.689Z,101942.63
2023-03-15T20:13:03.923Z,101879.22
2023-03-15T20:15:32.012Z,101948.78
2023-03-15T20:17:59.154Z,101943.38
2023-03-15T20:20:26.115Z,101942.00
2023-03-15T20:22:53.110Z,101949.47
2023-03-15T20:25:20.715Z,101949.09
2023-03-15T20:27:48.329Z,101950.06
2023-03-15T20:30:20.072Z,101954.28
2023-03-15T20:32:47.418Z,101960.88
2023-03-15T20:35:17.616Z,101964.34
2023-03-15T20:37:44.747Z,101959.34
2023-03-15T20:40:14.779Z,101963.72
2023-03-15T20:42:42.373Z,101964.84
2023-03-15T20:45:12.628Z,101970.38
2023-03-15T20:47:41.423Z,101961.50
2023-03-15T20:50:10.177Z,101969.97
2023-03-15T20:52:36.998Z,101974.22
2023-03-15T20:55:05.632Z,101975.34
2023-03-15T20:57:36.792Z,101980.84
2023-03-15T21:00:18.517Z,101987.03
2023-03-15T21:02:48.094Z,101986.84
2023-03-15T21:05:16.464Z,101986.13
2023-03-15T21:07:44.279Z,101986.06
2023-03-15T21:10:14.062Z,101984.38
2023-03-15T21:12:41.177Z,101988.03
2023-03-15T21:15:08.534Z,101984.25
2023-03-15T21:17:35.755Z,101984.81
2023-03-15T21:20:05.857Z,101986.28
2023-03-15T21:22:32.700Z,101979.41
2023-03-15T21:24:59.532Z,101982.94
2023-03-15T21:27:26.433Z,101982.25
2023-03-15T21:29:53.804Z,101977.94
2023-03-15T21:32:21.599Z,101977.75
2023-03-15T21:34:48.802Z,101981.06
2023-03-15T21:37:16.244Z,101986.38
2023-03-15T21:39:43.321Z,101978.66
2023-03-15T21:42:10.382Z,101986.19
2023-03-15T21:44:40.792Z,101965.91
2023-03-15T21:47:07.785Z,101988.97
2023-03-15T21:49:37.178Z,101982.03
2023-03-15T21:52:04.125Z,101986.09
2023-03-15T21:54:31.188Z,101962.44
2023-03-15T21:56:58.394Z,101985.66
2023-03-15T21:59:28.409Z,101994.53
2023-03-15T22:01:56.331Z,101983.34
2023-03-15T22:04:27.260Z,101993.72
2023-03-15T22:06:54.721Z,101986.41
2023-03-15T22:09:25.243Z,101993.94
2023-03-15T22:11:52.260Z,101993.34
2023-03-15T22:14:19.221Z,101996.72
2023-03-15T22:16:46.288Z,102002.34
2023-03-15T22:19:14.630Z,101995.69
2023-03-15T22:21:42.467Z,101996.69
2023-03-15T22:24:10.118Z,102001.28
2023-03-15T22:26:37.127Z,101991.25
2023-03-15T22:29:03.921Z,101990.50
2023-03-15T22:31:33.669Z,101990.34
2023-03-15T22:34:01.958Z,101990.94
2023-03-15T22:36:29.759Z,101989.28
2023-03-15T22:38:58.528Z,101949.22
2023-03-15T22:41:25.729Z,101994.59
2023-03-15T22:43:55.438Z,101991.03
2023-03-15T22:46:22.325Z,101993.59
2023-03-15T22:48:49.307Z,101991.72
2023-03-15T22:51:16.923Z,101987.09
2023-03-15T22:53:44.419Z,101997.22
2023-03-15T22:56:11.573Z,101934.13
2023-03-15T22:58:38.967Z,101999.75
2023-03-15T23:01:06.036Z,102003.16
2023-03-15T23:03:33.183Z,101988.22
2023-03-15T23:06:00.906Z,102002.94
2023-03-15T23:08:27.793Z,102010.09
2023-03-15T23:10:57.720Z,102014.72
2023-03-15T23:13:25.043Z,102015.16
2023-03-15T23:15:52.022Z,102017.28
2023-03-15T23:18:19.253Z,102016.25
2023-03-15T23:20:46.644Z,102015.63
2023-03-15T23:23:13.914Z,102024.44
2023-03-15T23:25:40.896Z,102018.97
2023-03-15T23:28:08.158Z,102003.03
2023-03-15T23:30:36.363Z,102037.28
2023-03-15T23:33:04.414Z,102029.72
2023-03-15T23:35:32.084Z,102027.63
2023-03-15T23:37:59.314Z,102031.19
2023-03-15T23:40:26.806Z,102032.66
2023-03-15T23:42:59.213Z,102020.50
2023-03-15T23:45:29.691Z,102039.63
2023-03-15T23:47:56.907Z,102045.53
2023-03-15T23:50:26.308Z,102041.31
2023-03-15T23:52:54.821Z,102040.06
2023-03-15T23:55:23.756Z,102036.09
2023-03-15T23:57:54.233Z,102038.38
